createdAt,value
2022-08-29T00:00:23.220Z,100958.06
2022-08-29T00:02:58.125Z,100949.84
2022-08-29T00:05:33.333Z,100952.41
2022-08-29T00:08:01.665Z,100960.66
2022-08-29T00:10:43.566Z,100950.78
2022-08-29T00:13:15.089Z,100948.16
2022-08-29T00:15:45.070Z,100932.47
2022-08-29T00:18:19.814Z,100938.13
2022-08-29T00:20:52.874Z,100933.81
2022-08-29T00:23:22.613Z,100928.50
2022-08-29T00:25:49.895Z,100928.09
2022-08-29T00:28:17.358Z,100923.56
2022-08-29T00:30:44.814Z,100926.44
2022-08-29T00:33:16.504Z,100927.78
2022-08-29T00:35:49.163Z,100930.16
2022-08-29T00:38:19.158Z,100936.75
2022-08-29T00:40:54.212Z,100938.31
2022-08-29T00:43:35.068Z,100936.69
2022-08-29T00:46:13.944Z,100941.38
2022-08-29T00:48:42.420Z,100949.53
2022-08-29T00:51:16.854Z,100951.34
2022-08-29T00:53:48.191Z,100945.72
2022-08-29T00:56:17.496Z,100947.53
2022-08-29T00:58:57.694Z,100941.25
2022-08-29T01:01:27.444Z,100948.50
2022-08-29T01:03:55.010Z,100937.31
2022-08-29T01:06:26.367Z,100941.06
2022-08-29T01:08:57.344Z,100938.72
2022-08-29T01:11:48.325Z,100942.22
2022-08-29T01:14:21.181Z,100955.44
2022-08-29T01:16:56.623Z,100955.44
2022-08-29T01:20:08.581Z,100948.78
2022-08-29T01:22:56.842Z,100955.41
2022-08-29T01:25:28.937Z,100954.06
2022-08-29T01:28:23.878Z,100962.09
2022-08-29T01:31:06.541Z,100964.75
2022-08-29T01:33:59.541Z,100953.59
2022-08-29T01:36:56.192Z,100956.34
2022-08-29T01:39:29.875Z,100954.56
2022-08-29T01:42:05.462Z,100952.94
2022-08-29T01:44:33.568Z,100961.72
2022-08-29T01:47:03.373Z,100966.41
2022-08-29T01:49:33.680Z,100960.69
2022-08-29T01:52:02.374Z,100972.56
2022-08-29T01:54:31.321Z,100964.91
2022-08-29T01:56:58.636Z,100974.50
2022-08-29T01:59:29.098Z,100976.09
2022-08-29T02:02:16.150Z,100984.72
2022-08-29T02:04:47.401Z,100983.19
2022-08-29T02:07:20.042Z,100985.81
2022-08-29T02:09:48.615Z,100981.81
2022-08-29T02:12:16.637Z,100980.84
2022-08-29T02:14:44.689Z,100982.78
2022-08-29T02:17:12.182Z,100985.59
2022-08-29T02:19:39.891Z,100984.03
2022-08-29T02:22:09.681Z,100985.34
2022-08-29T02:24:37.601Z,100982.63
2022-08-29T02:27:05.481Z,100974.00
2022-08-29T02:29:37.723Z,100984.50
2022-08-29T02:32:14.071Z,100978.56
2022-08-29T02:34:47.657Z,100981.81
2022-08-29T02:37:16.886Z,100979.88
2022-08-29T02:39:45.656Z,100986.38
2022-08-29T02:42:14.986Z,100985.47
2022-08-29T02:44:42.113Z,100995.31
2022-08-29T02:47:09.508Z,100991.59
2022-08-29T02:49:36.836Z,100987.81
2022-08-29T02:52:06.829Z,100994.28
2022-08-29T02:54:35.328Z,100992.72
2022-08-29T02:57:05.013Z,100998.34
2022-08-29T02:59:34.313Z,100993.25
2022-08-29T03:02:04.358Z,100994.91
2022-08-29T03:04:31.640Z,100997.59
2022-08-29T03:07:01.158Z,100996.25
2022-08-29T03:09:35.864Z,100998.13
2022-08-29T03:12:03.378Z,101000.81
2022-08-29T03:14:30.549Z,101001.91
2022-08-29T03:17:00.026Z,101002.22
2022-08-29T03:19:27.154Z,101004.38
2022-08-29T03:22:01.008Z,101011.66
2022-08-29T03:24:28.488Z,101004.56
2022-08-29T03:26:56.748Z,100997.00
2022-08-29T03:29:25.020Z,101002.19
2022-08-29T03:31:52.454Z,101007.06
2022-08-29T03:34:20.567Z,101007.31
2022-08-29T03:36:47.666Z,101012.44
2022-08-29T03:39:14.857Z,101008.94
2022-08-29T03:41:45.712Z,101008.88
2022-08-29T03:44:15.608Z,101014.84
2022-08-29T03:46:45.308Z,101016.38
2022-08-29T03:49:15.700Z,101008.09
2022-08-29T03:51:43.206Z,101007.81
2022-08-29T03:54:10.342Z,101009.44
2022-08-29T03:56:40.164Z,101010.81
2022-08-29T03:59:12.874Z,101007.84
2022-08-29T04:01:41.749Z,101011.91
2022-08-29T04:04:29.310Z,101009.22
2022-08-29T04:06:56.450Z,101019.22
2022-08-29T04:09:23.673Z,101022.13
2022-08-29T04:11:53.510Z,101023.97
2022-08-29T04:14:21.238Z,101018.88
2022-08-29T04:16:50.101Z,101025.09
2022-08-29T04:19:22.147Z,101027.06
2022-08-29T04:21:52.525Z,101018.69
2022-08-29T04:24:21.008Z,101024.13
2022-08-29T04:26:48.175Z,101033.28
2022-08-29T04:29:15.451Z,101029.59
2022-08-29T04:31:44.042Z,101028.44
2022-08-29T04:34:13.694Z,101032.53
2022-08-29T04:36:45.511Z,101032.19
2022-08-29T04:39:13.786Z,101026.00
2022-08-29T04:41:42.502Z,101021.69
2022-08-29T04:44:12.433Z,101018.16
2022-08-29T04:46:40.014Z,101019.75
2022-08-29T04:49:11.436Z,101014.91
2022-08-29T04:51:43.528Z,101029.53
2022-08-29T04:54:12.002Z,101028.94
2022-08-29T04:56:39.957Z,101031.19
2022-08-29T04:59:15.993Z,101031.75
2022-08-29T05:01:45.917Z,101028.44
2022-08-29T05:04:14.635Z,101038.16
2022-08-29T05:06:42.512Z,101033.84
2022-08-29T05:09:09.692Z,101022.34
2022-08-29T05:11:37.251Z,101040.28
2022-08-29T05:14:04.496Z,101035.69
2022-08-29T05:16:35.154Z,101037.66
2022-08-29T05:19:02.742Z,101046.06
2022-08-29T05:21:36.649Z,101046.06
2022-08-29T05:24:09.892Z,101052.78
2022-08-29T05:26:43.223Z,101055.72
2022-08-29T05:29:13.416Z,101052.56
2022-08-29T05:31:42.226Z,101057.28
2022-08-29T05:34:32.201Z,101057.09
2022-08-29T05:37:00.872Z,101055.44
2022-08-29T05:39:28.117Z,101061.47
2022-08-29T05:41:57.168Z,101056.66
2022-08-29T05:44:28.772Z,101056.41
2022-08-29T05:47:00.457Z,101054.19
2022-08-29T05:49:28.025Z,101058.84
2022-08-29T05:51:56.284Z,101062.34
2022-08-29T05:54:25.439Z,101058.44
2022-08-29T05:56:57.437Z,101054.97
2022-08-29T05:59:24.656Z,101055.56
2022-08-29T06:01:51.945Z,101066.84
2022-08-29T06:04:19.431Z,101060.69
2022-08-29T06:06:48.652Z,101052.91
2022-08-29T06:09:15.790Z,101059.09
2022-08-29T06:11:48.276Z,101069.41
2022-08-29T06:14:16.899Z,101078.34
2022-08-29T06:16:44.167Z,101068.63
2022-08-29T06:19:12.034Z,101071.59
2022-08-29T06:21:39.552Z,101072.97
2022-08-29T06:24:07.248Z,101075.53
2022-08-29T06:26:35.485Z,101071.66
2022-08-29T06:29:10.529Z,101079.47
2022-08-29T06:31:38.960Z,101083.78
2022-08-29T06:34:07.434Z,101082.53
2022-08-29T06:36:37.904Z,101088.28
2022-08-29T06:39:09.524Z,101082.50
2022-08-29T06:41:42.171Z,101096.09
2022-08-29T06:44:09.933Z,101091.03
2022-08-29T06:46:41.576Z,101095.25
2022-08-29T06:49:13.613Z,101107.53
2022-08-29T06:51:42.528Z,101104.47
2022-08-29T06:54:12.357Z,101100.38
2022-08-29T06:56:42.614Z,101104.19
2022-08-29T06:59:10.179Z,101107.88
2022-08-29T07:01:37.691Z,101113.81
2022-08-29T07:04:04.969Z,101107.25
2022-08-29T07:06:36.203Z,101105.72
2022-08-29T07:09:05.360Z,101110.47
2022-08-29T07:11:36.610Z,101112.00
2022-08-29T07:14:07.755Z,101101.84
2022-08-29T07:16:38.896Z,101105.88
2022-08-29T07:19:08.198Z,101111.13
2022-08-29T07:21:35.703Z,101117.34
2022-08-29T07:24:03.561Z,101118.31
2022-08-29T07:26:36.916Z,101120.91
2022-08-29T07:29:15.909Z,101117.00
2022-08-29T07:31:43.287Z,101113.69
2022-08-29T07:34:10.840Z,101123.34
2022-08-29T07:36:38.986Z,101121.31
2022-08-29T07:39:12.744Z,101116.16
2022-08-29T07:41:42.015Z,101126.00
2022-08-29T07:44:09.982Z,101119.28
2022-08-29T07:46:37.845Z,101121.94
2022-08-29T07:49:05.719Z,101111.59
2022-08-29T07:51:33.168Z,101123.94
2022-08-29T07:54:00.449Z,101128.91
2022-08-29T07:56:43.979Z,101128.50
2022-08-29T07:59:14.345Z,101130.03
2022-08-29T08:01:41.554Z,101135.78
2022-08-29T08:04:09.521Z,101131.91
2022-08-29T08:06:38.170Z,101142.38
2022-08-29T08:09:07.872Z,101130.78
2022-08-29T08:11:38.698Z,101134.78
2022-08-29T08:14:05.810Z,101133.44
2022-08-29T08:16:33.722Z,101137.81
2022-08-29T08:19:04.053Z,101142.03
2022-08-29T08:21:31.124Z,101144.81
2022-08-29T08:23:58.470Z,101136.41
2022-08-29T08:26:28.198Z,101143.63
2022-08-29T08:28:57.812Z,101144.38
2022-08-29T08:31:25.457Z,101145.38
2022-08-29T08:33:52.764Z,101146.44
2022-08-29T08:36:22.677Z,101148.84
2022-08-29T08:38:52.183Z,101149.53
2022-08-29T08:42:16.829Z,101156.47
2022-08-29T08:45:08.966Z,101155.19
2022-08-29T08:48:06.323Z,101156.38
2022-08-29T08:51:05.971Z,101161.03
2022-08-29T08:53:41.208Z,101149.75
2022-08-29T08:56:34.188Z,101145.13
2022-08-29T08:59:21.060Z,101156.72
2022-08-29T09:02:35.389Z,101158.44
2022-08-29T09:05:29.990Z,101155.88
2022-08-29T09:08:28.915Z,101160.09
2022-08-29T09:11:13.450Z,101153.94
2022-08-29T09:14:08.594Z,101147.84
2022-08-29T09:16:44.995Z,101155.03
2022-08-29T09:19:17.237Z,101152.44
2022-08-29T09:21:57.656Z,101145.03
2022-08-29T09:24:55.867Z,101144.25
2022-08-29T09:27:30.668Z,101143.41
2022-08-29T09:30:14.334Z,101150.16
2022-08-29T09:32:56.383Z,101137.91
2022-08-29T09:35:41.658Z,101133.50
2022-08-29T09:38:20.269Z,101138.41
2022-08-29T09:41:10.674Z,101147.59
2022-08-29T09:43:40.643Z,101136.28
2022-08-29T09:46:16.390Z,101133.78
2022-08-29T09:48:57.866Z,101137.59
2022-08-29T09:51:33.223Z,101126.75
2022-08-29T09:54:23.364Z,101137.81
2022-08-29T09:57:08.893Z,101138.41
2022-08-29T09:59:46.212Z,101139.31
2022-08-29T10:02:19.761Z,101135.28
2022-08-29T10:05:00.460Z,101143.16
2022-08-29T10:07:50.044Z,101142.81
2022-08-29T10:10:18.709Z,101144.75
2022-08-29T10:13:08.478Z,101136.09
2022-08-29T10:15:51.190Z,101138.25
2022-08-29T10:18:48.528Z,101129.53
2022-08-29T10:21:47.523Z,101135.50
2022-08-29T10:24:44.097Z,101124.53
2022-08-29T10:27:32.099Z,101126.63
2022-08-29T10:30:13.766Z,101122.63
2022-08-29T10:34:01.948Z,101124.47
2022-08-29T10:36:39.477Z,101122.59
2022-08-29T10:39:34.785Z,101128.38
2022-08-29T10:42:19.437Z,101131.00
2022-08-29T10:45:07.078Z,101124.19
2022-08-29T10:47:41.316Z,101120.00
2022-08-29T10:50:43.641Z,101118.00
2022-08-29T10:53:25.261Z,101119.81
2022-08-29T10:56:05.874Z,101112.13
2022-08-29T10:59:04.127Z,101099.75
2022-08-29T11:02:32.756Z,101104.13
2022-08-29T11:05:07.229Z,101116.81
2022-08-29T11:08:00.687Z,101103.63
2022-08-29T11:10:39.844Z,101112.19
2022-08-29T11:13:19.967Z,101112.38
2022-08-29T11:16:15.522Z,101111.72
2022-08-29T11:19:05.762Z,101111.75
2022-08-29T11:21:44.253Z,101124.84
2022-08-29T11:24:17.108Z,101114.84
2022-08-29T11:26:44.050Z,101116.97
2022-08-29T11:29:38.432Z,101114.66
2022-08-29T11:32:40.057Z,101126.13
2022-08-29T11:35:51.652Z,101124.22
2022-08-29T11:38:55.187Z,101124.09
2022-08-29T11:41:27.707Z,101130.44
2022-08-29T11:44:38.009Z,101126.78
2022-08-29T11:47:40.732Z,101130.34
2022-08-29T11:50:17.452Z,101137.97
2022-08-29T11:53:09.531Z,101143.75
2022-08-29T11:55:39.503Z,101142.06
2022-08-29T11:58:15.797Z,101141.56
2022-08-29T12:00:45.559Z,101135.41
2022-08-29T12:03:34.877Z,101138.66
2022-08-29T12:06:30.754Z,101130.88
2022-08-29T12:09:13.876Z,101126.25
2022-08-29T12:12:05.426Z,101131.22
2022-08-29T12:14:37.890Z,101125.22
2022-08-29T12:17:51.286Z,101129.06
2022-08-29T12:20:37.527Z,101126.25
2022-08-29T12:23:13.830Z,101122.53
2022-08-29T12:26:03.721Z,101127.19
2022-08-29T12:28:47.097Z,101130.53
2022-08-29T12:31:35.960Z,101132.97
2022-08-29T12:34:05.691Z,101143.53
2022-08-29T12:37:16.352Z,101135.00
2022-08-29T12:39:49.227Z,101139.69
2022-08-29T12:42:16.174Z,101137.22
2022-08-29T12:45:00.752Z,101144.44
2022-08-29T12:47:38.023Z,101138.19
2022-08-29T12:50:24.096Z,101140.19
2022-08-29T12:53:26.247Z,101132.84
2022-08-29T12:56:01.395Z,101140.19
2022-08-29T12:58:40.188Z,101141.22
2022-08-29T13:01:25.427Z,101144.31
2022-08-29T13:04:15.157Z,101137.06
2022-08-29T13:07:02.637Z,101135.59
2022-08-29T13:09:52.606Z,101152.16
2022-08-29T13:12:29.524Z,101135.59
2022-08-29T13:15:01.612Z,101131.56
2022-08-29T13:17:36.189Z,101142.09
2022-08-29T13:20:46.164Z,101134.59
2022-08-29T13:23:13.209Z,101128.19
2022-08-29T13:26:05.001Z,101133.06
2022-08-29T13:28:56.749Z,101131.16
2022-08-29T13:31:32.424Z,101127.38
2022-08-29T13:34:02.149Z,101128.66
2022-08-29T13:36:47.231Z,101132.69
2022-08-29T13:39:17.250Z,101118.25
2022-08-29T13:41:49.409Z,101122.53
2022-08-29T13:44:25.832Z,101120.13
2022-08-29T13:46:57.751Z,101124.97
2022-08-29T13:49:29.780Z,101117.81
2022-08-29T13:51:58.294Z,101124.47
2022-08-29T13:54:29.462Z,101106.31
2022-08-29T13:57:03.326Z,101110.88
2022-08-29T13:59:37.084Z,101120.94
2022-08-29T14:02:09.227Z,101125.78
2022-08-29T14:04:40.966Z,101125.22
2022-08-29T14:07:31.444Z,101119.16
2022-08-29T14:09:59.611Z,101125.53
2022-08-29T14:12:33.000Z,101133.63
2022-08-29T14:15:09.669Z,101116.69
2022-08-29T14:17:40.376Z,101131.56
2022-08-29T14:20:12.646Z,101133.03
2022-08-29T14:22:42.790Z,101138.53
2022-08-29T14:25:14.140Z,101124.06
2022-08-29T14:27:42.024Z,101128.16
2022-08-29T14:30:12.493Z,101135.75
2022-08-29T14:32:39.950Z,101140.47
2022-08-29T14:35:09.297Z,101129.00
2022-08-29T14:37:39.399Z,101140.88
2022-08-29T14:40:09.479Z,101124.22
2022-08-29T14:42:41.727Z,101134.38
2022-08-29T14:45:15.044Z,101126.53
2022-08-29T14:47:43.636Z,101120.53
2022-08-29T14:50:14.261Z,101127.00
2022-08-29T14:52:44.769Z,101125.41
2022-08-29T14:55:13.340Z,101124.19
2022-08-29T14:57:43.418Z,101133.38
2022-08-29T15:00:16.788Z,101129.97
2022-08-29T15:02:46.772Z,101123.53
2022-08-29T15:05:14.037Z,101136.44
2022-08-29T15:07:42.249Z,101136.47
2022-08-29T15:10:12.828Z,101121.03
2022-08-29T15:12:41.039Z,101122.66
2022-08-29T15:15:09.251Z,101122.47
2022-08-29T15:17:36.888Z,101123.47
2022-08-29T15:22:58.308Z,101133.41
2022-08-29T15:25:26.222Z,101129.69
2022-08-29T15:27:53.427Z,101132.06
2022-08-29T15:30:25.107Z,101133.59
2022-08-29T15:32:55.145Z,101126.31
2022-08-29T15:35:24.857Z,101121.22
2022-08-29T15:37:53.663Z,101123.22
2022-08-29T15:40:21.325Z,101117.25
2022-08-29T15:42:48.459Z,101128.66
2022-08-29T15:45:18.043Z,101115.47
2022-08-29T15:47:50.232Z,101122.47
2022-08-29T15:50:21.458Z,101125.66
2022-08-29T15:52:48.543Z,101123.44
2022-08-29T15:55:15.904Z,101121.09
2022-08-29T15:57:52.522Z,101127.63
2022-08-29T16:00:29.506Z,101125.78
2022-08-29T16:03:00.386Z,101125.81
2022-08-29T16:05:27.669Z,101122.97
2022-08-29T16:07:54.843Z,101123.47
2022-08-29T16:10:25.966Z,101126.78
2022-08-29T16:12:53.275Z,101129.06
2022-08-29T16:15:20.818Z,101131.56
2022-08-29T16:17:47.968Z,101127.94
2022-08-29T16:20:15.451Z,101127.88
2022-08-29T16:22:43.105Z,101130.78
2022-08-29T16:25:12.960Z,101134.97
2022-08-29T16:27:40.465Z,101137.84
2022-08-29T16:30:10.307Z,101132.97
2022-08-29T16:32:38.576Z,101133.94
2022-08-29T16:35:07.283Z,101126.91
2022-08-29T16:37:34.786Z,101139.16
2022-08-29T16:40:04.293Z,101138.00
2022-08-29T16:42:34.221Z,101135.88
2022-08-29T16:45:06.435Z,101138.00
2022-08-29T16:47:35.120Z,101138.31
2022-08-29T16:50:03.745Z,101138.44
2022-08-29T16:52:31.184Z,101138.84
2022-08-29T16:54:58.387Z,101155.06
2022-08-29T16:57:25.608Z,101156.94
2022-08-29T16:59:52.704Z,101154.41
2022-08-29T17:02:19.884Z,101164.50
2022-08-29T17:04:48.950Z,101156.69
2022-08-29T17:07:18.649Z,101157.59
2022-08-29T17:09:45.762Z,101162.59
2022-08-29T17:12:13.028Z,101161.75
2022-08-29T17:14:41.728Z,101154.03
2022-08-29T17:17:08.971Z,101157.75
2022-08-29T17:19:36.150Z,101156.84
2022-08-29T17:22:04.777Z,101158.44
2022-08-29T17:24:31.934Z,101165.78
2022-08-29T17:26:59.047Z,101161.34
2022-08-29T17:29:26.199Z,101174.19
2022-08-29T17:31:53.647Z,101171.66
2022-08-29T17:34:20.722Z,101171.91
2022-08-29T17:36:49.788Z,101171.31
2022-08-29T17:39:17.271Z,101165.09
2022-08-29T17:41:50.932Z,101170.59
2022-08-29T17:44:18.025Z,101171.13
2022-08-29T17:46:45.540Z,101160.97
2022-08-29T17:49:12.992Z,101166.88
2022-08-29T17:51:42.211Z,101175.25
2022-08-29T17:54:14.938Z,101173.06
2022-08-29T17:56:47.602Z,101175.63
2022-08-29T17:59:18.062Z,101180.41
2022-08-29T18:01:45.805Z,101168.00
2022-08-29T18:04:14.079Z,101179.63
2022-08-29T18:06:42.049Z,101180.19
2022-08-29T18:09:09.673Z,101169.94
2022-08-29T18:11:44.161Z,101175.84
2022-08-29T18:14:13.152Z,101184.25
2022-08-29T18:16:40.390Z,101177.75
2022-08-29T18:19:08.233Z,101183.66
2022-08-29T18:21:36.413Z,101187.97
2022-08-29T18:24:06.524Z,101179.53
2022-08-29T18:26:34.943Z,101187.69
2022-08-29T18:29:06.704Z,101187.88
2022-08-29T18:31:33.851Z,101186.25
2022-08-29T18:34:01.608Z,101192.44
2022-08-29T18:36:31.698Z,101189.00
2022-08-29T18:38:59.593Z,101196.09
2022-08-29T18:41:27.421Z,101197.25
2022-08-29T18:43:54.592Z,101197.78
2022-08-29T18:46:22.000Z,101201.13
2022-08-29T18:48:51.651Z,101199.41
2022-08-29T18:51:21.775Z,101201.53
2022-08-29T18:53:49.266Z,101204.88
2022-08-29T18:56:19.153Z,101204.59
2022-08-29T18:58:46.204Z,101201.56
2022-08-29T19:01:27.387Z,101203.75
2022-08-29T19:03:57.876Z,101203.28
2022-08-29T19:06:25.924Z,101213.03
2022-08-29T19:08:55.167Z,101214.66
2022-08-29T19:11:23.029Z,101213.09
2022-08-29T19:13:52.445Z,101216.09
2022-08-29T19:16:21.732Z,101218.63
2022-08-29T19:18:49.589Z,101211.44
2022-08-29T19:21:16.878Z,101220.50
2022-08-29T19:23:52.482Z,101218.63
2022-08-29T19:26:32.326Z,101216.53
2022-08-29T19:29:12.620Z,101223.38
2022-08-29T19:31:41.819Z,101227.56
2022-08-29T19:34:12.220Z,101228.00
2022-08-29T19:36:47.040Z,101219.34
2022-08-29T19:39:15.791Z,101225.69
2022-08-29T19:41:45.333Z,101225.03
2022-08-29T19:44:12.507Z,101223.91
2022-08-29T19:46:46.007Z,101230.28
2022-08-29T19:49:16.378Z,101235.38
2022-08-29T19:51:44.382Z,101232.09
2022-08-29T19:54:13.889Z,101233.00
2022-08-29T19:56:41.217Z,101240.94
2022-08-29T19:59:14.680Z,101239.31
2022-08-29T20:01:45.123Z,101238.81
2022-08-29T20:04:12.640Z,101249.41
2022-08-29T20:06:39.907Z,101239.31
2022-08-29T20:09:07.615Z,101240.47
2022-08-29T20:11:43.564Z,101240.00
2022-08-29T20:14:22.335Z,101245.41
2022-08-29T20:16:55.070Z,101249.84
2022-08-29T20:19:22.625Z,101253.88
2022-08-29T20:21:50.825Z,101257.50
2022-08-29T20:24:19.512Z,101255.31
2022-08-29T20:26:49.775Z,101251.75
2022-08-29T20:29:20.767Z,101260.66
2022-08-29T20:31:50.550Z,101262.91
2022-08-29T20:34:20.251Z,101255.41
2022-08-29T20:37:06.167Z,101260.66
2022-08-29T20:39:36.083Z,101255.31
2022-08-29T20:42:04.360Z,101260.19
2022-08-29T20:44:37.686Z,101267.97
2022-08-29T20:47:08.115Z,101267.03
2022-08-29T20:49:45.163Z,101265.72
2022-08-29T20:52:14.779Z,101273.00
2022-08-29T20:54:42.170Z,101269.47
2022-08-29T20:57:14.966Z,101270.91
2022-08-29T20:59:44.215Z,101268.75
2022-08-29T21:02:11.592Z,101274.16
2022-08-29T21:04:57.721Z,101271.44
2022-08-29T21:07:25.734Z,101270.63
2022-08-29T21:09:54.182Z,101268.72
2022-08-29T21:12:21.784Z,101274.75
2022-08-29T21:14:54.826Z,101279.88
2022-08-29T21:17:22.383Z,101270.84
2022-08-29T21:19:51.659Z,101276.84
2022-08-29T21:22:22.979Z,101273.34
2022-08-29T21:24:54.199Z,101280.44
2022-08-29T21:27:21.511Z,101276.31
2022-08-29T21:29:55.728Z,101282.28
2022-08-29T21:32:23.177Z,101283.91
2022-08-29T21:34:50.363Z,101272.00
2022-08-29T21:37:18.278Z,101273.91
2022-08-29T21:39:47.793Z,101275.72
2022-08-29T21:42:14.984Z,101282.53
2022-08-29T21:44:42.661Z,101282.28
2022-08-29T21:47:09.844Z,101296.38
2022-08-29T21:49:36.946Z,101299.72
2022-08-29T21:52:04.471Z,101295.88
2022-08-29T21:54:31.517Z,101295.91
2022-08-29T21:56:58.864Z,101303.22
2022-08-29T21:59:27.919Z,101298.59
2022-08-29T22:01:56.066Z,101304.84
2022-08-29T22:04:28.063Z,101313.56
2022-08-29T22:06:59.207Z,101315.44
2022-08-29T22:09:30.191Z,101323.84
2022-08-29T22:11:58.508Z,101316.56
2022-08-29T22:14:47.078Z,101319.50
2022-08-29T22:17:16.084Z,101318.13
2022-08-29T22:19:43.258Z,101329.03
2022-08-29T22:22:11.152Z,101322.22
2022-08-29T22:24:38.559Z,101326.84
2022-08-29T22:27:06.116Z,101325.47
2022-08-29T22:29:35.391Z,101329.84
2022-08-29T22:32:02.799Z,101331.13
2022-08-29T22:34:29.989Z,101326.75
2022-08-29T22:36:57.066Z,101335.53
2022-08-29T22:39:24.291Z,101341.25
2022-08-29T22:41:51.451Z,101346.41
2022-08-29T22:47:08.233Z,101346.38
2022-08-29T22:49:37.121Z,101346.97
2022-08-29T22:52:04.836Z,101351.03
2022-08-29T22:54:40.422Z,101352.91
2022-08-29T22:57:14.868Z,101361.59
2022-08-29T22:59:46.008Z,101361.59
2022-08-29T23:02:13.813Z,101366.50
2022-08-29T23:04:42.109Z,101357.78
2022-08-29T23:07:11.663Z,101357.78
2022-08-29T23:09:43.368Z,101361.84
2022-08-29T23:12:13.531Z,101358.34
2022-08-29T23:14:43.487Z,101361.34
2022-08-29T23:17:10.688Z,101356.97
2022-08-29T23:19:41.035Z,101361.56
2022-08-29T23:22:10.633Z,101367.81
2022-08-29T23:24:49.764Z,101367.53
2022-08-29T23:27:30.257Z,101371.31
2022-08-29T23:29:59.472Z,101366.09
2022-08-29T23:32:27.529Z,101366.44
2022-08-29T23:34:55.197Z,101363.25
2022-08-29T23:37:25.258Z,101371.03
2022-08-29T23:39:52.366Z,101371.03
2022-08-29T23:42:19.624Z,101373.28
2022-08-29T23:44:48.380Z,101367.59
2022-08-29T23:47:16.980Z,101366.47
2022-08-29T23:49:44.495Z,101371.63
2022-08-29T23:52:13.952Z,101371.13
2022-08-29T23:54:41.324Z,101367.84
2022-08-29T23:57:10.975Z,101369.97
2022-08-29T23:59:57.167Z,101375.47
